Time;durP1;ratioP1;P1;durP2;ratioP2;P2;SDS_P1;SDS_P2;PMS_P1;PMS_P2;Temp;Humidity;BMP_temperature;BMP_pressure;BME280_temperature;BME280_humidity;BME280_pressure;Samples;Min_cycle;Max_cycle;Signal;HPM_P1;HPM_P2
2021/10/04 00:01:57;;;;;;;;;;;;;;;13.68;86.53;100335.73;1646574;85;20502;-93
2021/10/04 00:04:23;;;;;;;;;;;;;;;13.65;86.60;100331.08;1646787;86;20467;-86
2021/10/04 00:06:48;;;;;;;;;;;;;;;13.62;86.64;100328.77;1646845;86;21006;-86
2021/10/04 00:09:14;;;;;;;;;;;;;;;13.59;86.84;100331.77;1642566;86;20148;-86
2021/10/04 00:11:41;;;;;;;;;;;;;;;13.59;86.88;100331.77;1647471;86;20193;-88
2021/10/04 00:14:07;;;;;;;;;;;;;;;13.56;86.92;100332.11;1615308;86;20159;-86
2021/10/04 00:16:33;;;;;;;;;;;;;;;13.56;86.90;100334.76;1645836;85;20139;-85
2021/10/04 00:19:01;;;;;;;;;;;;;;;13.53;86.94;100329.83;1646717;86;22578;-91
2021/10/04 00:21:26;;;;;;;;;;;;;;;13.53;87.08;100328.98;1646494;86;20141;-87
2021/10/04 00:23:52;;;;;;;;;;;;;;;13.54;87.02;100330.12;1643825;85;20162;-86
2021/10/04 00:26:19;;;;;;;;;;;;;;;13.49;87.29;100325.84;1648786;86;20136;-86
2021/10/04 00:28:44;;;;;;;;;;;;;;;13.51;87.25;100325.17;1650803;85;20207;-86
2021/10/04 00:31:10;;;;;;;;;;;;;;;13.52;87.06;100329.48;1646656;85;21029;-88
2021/10/04 00:33:36;;;;;;;;;;;;;;;13.48;87.33;100322.04;1646479;86;20147;-87
2021/10/04 00:36:01;;;;;;;;;;;;;;;13.48;87.26;100326.02;1644272;86;21026;-89
2021/10/04 00:38:27;;;;;;;;;;;;;;;13.50;87.18;100326.19;1643686;86;20337;-85
2021/10/04 00:40:52;;;;;;;;;;;;;;;13.50;87.14;100323.53;1644837;86;20129;-85
2021/10/04 00:43:19;;;;;;;;;;;;;;;13.46;87.24;100322.20;1655531;86;21104;-87
2021/10/04 00:45:45;;;;;;;;;;;;;;;13.44;87.26;100318.40;1646069;86;20129;-86
2021/10/04 00:48:12;;;;;;;;;;;;;;;13.43;87.34;100315.41;1646788;86;20477;-85
2021/10/04 00:50:38;;;;;;;;;;;;;;;13.46;87.29;100315.58;1642710;86;20137;-86
2021/10/04 00:53:05;;;;;;;;;;;;;;;13.43;87.38;100315.92;1642404;86;20193;-85
2021/10/04 00:55:32;;;;;;;;;;;;;;;13.35;87.77;100314.63;1634505;86;20488;-87
2021/10/04 00:58:00;;;;;;;;;;;;;;;13.39;87.91;100315.92;1632235;86;20186;-86
2021/10/04 01:00:26;;;;;;;;;;;;;;;13.42;87.82;100310.27;1599950;87;20185;-86
2021/10/04 01:02:52;;;;;;;;;;;;;;;13.48;87.72;100314.08;1636129;86;20186;-87
2021/10/04 01:05:17;;;;;;;;;;;;;;;13.51;87.61;100307.11;1631208;86;20145;-89
2021/10/04 01:07:43;;;;;;;;;;;;;;;13.55;87.62;100305.74;1632889;86;21091;-87
2021/10/04 01:10:10;;;;;;;;;;;;;;;13.58;87.43;100310.23;1637636;86;20170;-87
2021/10/04 01:12:38;;;;;;;;;;;;;;;13.62;87.22;100306.72;1601752;87;20146;-87
2021/10/04 01:15:04;;;;;;;;;;;;;;;13.63;87.05;100305.73;1632480;86;20212;-86
2021/10/04 01:17:30;;;;;;;;;;;;;;;13.68;87.03;100307.87;1630671;86;20154;-87
2021/10/04 01:19:56;;;;;;;;;;;;;;;13.67;86.82;100312.33;1633889;86;21968;-85
2021/10/04 01:22:23;;;;;;;;;;;;;;;13.68;86.77;100307.87;1630127;86;20295;-84
2021/10/04 01:24:49;;;;;;;;;;;;;;;13.68;86.75;100303.38;1638451;86;20562;-85
2021/10/04 01:27:15;;;;;;;;;;;;;;;13.73;86.55;100304.19;1628203;87;20153;-84
2021/10/04 01:29:40;;;;;;;;;;;;;;;13.73;86.56;100299.70;1625165;87;20180;-84
2021/10/04 01:32:07;;;;;;;;;;;;;;;13.77;86.40;100305.51;1629177;86;21038;-85
2021/10/04 01:34:33;;;;;;;;;;;;;;;13.78;86.33;100305.81;1634337;87;20237;-85
2021/10/04 01:36:58;;;;;;;;;;;;;;;13.76;86.33;100301.19;1630712;87;20292;-84
2021/10/04 01:39:24;;;;;;;;;;;;;;;13.79;86.36;100304.83;1621033;87;20191;-85
2021/10/04 01:41:50;;;;;;;;;;;;;;;13.80;86.29;100301.18;1620933;87;20119;-84
2021/10/04 01:44:15;;;;;;;;;;;;;;;13.78;86.20;100299.17;1620479;87;21159;-86
2021/10/04 01:46:42;;;;;;;;;;;;;;;13.80;86.05;100301.18;1627101;87;20163;-84
2021/10/04 01:49:07;;;;;;;;;;;;;;;13.79;86.22;100294.20;1620625;87;20165;-85
2021/10/04 01:51:33;;;;;;;;;;;;;;;13.79;86.26;100296.86;1618708;87;20526;-85
2021/10/04 01:53:59;;;;;;;;;;;;;;;13.82;86.08;100302.64;1621131;87;20193;-85
2021/10/04 01:56:24;;;;;;;;;;;;;;;13.83;86.05;100302.16;1617860;86;21906;-85
2021/10/04 01:58:50;;;;;;;;;;;;;;;13.85;86.06;100306.78;1620601;86;20135;-86
2021/10/04 02:01:17;;;;;;;;;;;;;;;13.86;85.99;100300.97;1621350;86;20466;-89
2021/10/04 02:03:42;;;;;;;;;;;;;;;13.83;86.01;100303.48;1621005;86;20162;-85
2021/10/04 02:06:08;;;;;;;;;;;;;;;13.84;86.12;100303.80;1598931;88;20211;-85
2021/10/04 02:08:34;;;;;;;;;;;;;;;13.80;86.14;100306.48;1616914;87;21132;-85
2021/10/04 02:10:59;;;;;;;;;;;;;;;13.86;86.04;100299.16;1621724;86;20147;-85
2021/10/04 02:13:25;;;;;;;;;;;;;;;13.87;86.08;100299.47;1616495;87;20973;-86
2021/10/04 02:15:51;;;;;;;;;;;;;;;13.85;86.04;100298.82;1625595;87;20361;-85
2021/10/04 02:18:18;;;;;;;;;;;;;;;13.88;85.94;100305.11;1639888;86;20159;-85
2021/10/04 02:20:44;;;;;;;;;;;;;;;13.87;85.89;100307.94;1619544;87;21146;-87
2021/10/04 02:23:10;;;;;;;;;;;;;;;13.89;85.85;100306.78;1597332;87;20750;-85
2021/10/04 02:25:41;;;;;;;;;;;;;;;13.92;85.80;100305.58;1623262;87;20235;-85
2021/10/04 02:28:07;;;;;;;;;;;;;;;13.91;85.71;100306.60;1612609;87;20179;-85
2021/10/04 02:30:33;;;;;;;;;;;;;;;13.92;85.75;100299.79;1621594;87;20201;-85
2021/10/04 02:33:01;;;;;;;;;;;;;;;13.95;85.64;100304.75;1622253;87;22007;-88
2021/10/04 02:35:26;;;;;;;;;;;;;;;13.97;85.89;100302.73;1624425;86;20201;-85
2021/10/04 02:37:52;;;;;;;;;;;;;;;13.98;85.73;100303.55;1622887;87;20214;-85
2021/10/04 02:40:18;;;;;;;;;;;;;;;14.01;85.63;100307.19;1632332;87;20799;-85
2021/10/04 02:42:43;;;;;;;;;;;;;;;14.05;85.40;100301.05;1631997;85;20121;-85
2021/10/04 02:45:10;;;;;;;;;;;;;;;14.09;85.26;100306.31;1639095;87;21193;-86
2021/10/04 02:47:35;;;;;;;;;;;;;;;14.10;85.13;100311.97;1636037;85;20161;-85
2021/10/04 02:50:03;;;;;;;;;;;;;;;14.13;85.07;100306.30;1637639;85;20184;-88
2021/10/04 02:52:28;;;;;;;;;;;;;;;14.16;84.97;100309.94;1636779;85;20207;-87
2021/10/04 02:54:54;;;;;;;;;;;;;;;14.16;84.75;100311.27;1633612;87;20158;-91
2021/10/04 02:57:20;;;;;;;;;;;;;;;14.19;84.64;100308.25;1636671;85;21199;-86
2021/10/04 02:59:45;;;;;;;;;;;;;;;14.20;84.52;100308.59;1634886;85;20173;-85
2021/10/04 03:02:11;;;;;;;;;;;;;;;14.20;84.57;100308.59;1633569;85;20148;-86
2021/10/04 03:04:36;;;;;;;;;;;;;;;14.19;84.57;100310.91;1631918;85;20189;-86
2021/10/04 03:07:02;;;;;;;;;;;;;;;14.15;84.56;100308.27;1633296;85;20186;-93
2021/10/04 03:09:30;;;;;;;;;;;;;;;14.13;84.60;100308.95;1641663;87;21013;-86
2021/10/04 03:11:58;;;;;;;;;;;;;;;14.14;84.75;100311.95;1634570;85;20176;-92
2021/10/04 03:14:23;;;;;;;;;;;;;;;14.15;84.72;100313.59;1636044;85;20458;-87
2021/10/04 03:16:51;;;;;;;;;;;;;;;14.13;84.73;100319.58;1636692;85;20456;-92
2021/10/04 03:19:17;;;;;;;;;;;;;;;14.10;84.88;100322.59;1629844;85;20185;-85
2021/10/04 03:21:45;;;;;;;;;;;;;;;14.14;84.78;100318.59;1635951;85;22023;-86
2021/10/04 03:24:15;;;;;;;;;;;;;;;14.09;85.04;100315.13;1629867;85;20209;-85
2021/10/04 03:26:41;;;;;;;;;;;;;;;14.13;84.91;100308.95;1635291;85;20192;-85
2021/10/04 03:29:07;;;;;;;;;;;;;;;14.15;84.89;100305.61;1640743;85;20571;-85
2021/10/04 03:31:33;;;;;;;;;;;;;;;14.13;84.98;100309.77;1635915;85;20180;-90
2021/10/04 03:33:58;;;;;;;;;;;;;;;14.17;84.92;100304.45;1633891;85;21050;-86
2021/10/04 03:36:24;;;;;;;;;;;;;;;14.17;84.82;100304.96;1638045;85;20195;-87
2021/10/04 03:38:50;;;;;;;;;;;;;;;14.14;84.88;100303.47;1617322;87;20398;-87
2021/10/04 03:41:16;;;;;;;;;;;;;;;14.13;84.84;100301.81;1617906;87;20198;-87
2021/10/04 03:43:41;;;;;;;;;;;;;;;14.14;84.92;100302.66;1620125;87;20758;-87
2021/10/04 03:46:07;;;;;;;;;;;;;;;14.11;85.05;100303.01;1618694;87;21241;-87
2021/10/04 03:48:33;;;;;;;;;;;;;;;14.12;85.05;100305.97;1617924;87;20354;-88
2021/10/04 03:50:58;;;;;;;;;;;;;;;14.10;85.24;100300.02;1617968;87;20185;-87
2021/10/04 03:53:24;;;;;;;;;;;;;;;14.09;85.13;100298.35;1620017;87;20141;-87
2021/10/04 03:55:51;;;;;;;;;;;;;;;14.11;85.33;100304.33;1615490;87;20145;-89
2021/10/04 03:58:17;;;;;;;;;;;;;;;14.10;85.15;100300.02;1618774;87;21199;-87
2021/10/04 04:00:43;;;;;;;;;;;;;;;14.10;85.32;100301.34;1620149;88;20462;-87
2021/10/04 04:03:11;;;;;;;;;;;;;;;14.05;85.34;100295.74;1620371;87;20282;-87
2021/10/04 04:05:37;;;;;;;;;;;;;;;14.05;85.38;100299.72;1618481;87;20188;-94
2021/10/04 04:08:03;;;;;;;;;;;;;;;14.06;85.26;100294.72;1586552;88;20201;-86
2021/10/04 04:10:29;;;;;;;;;;;;;;;14.07;85.19;100300.37;1620476;88;21107;-87
2021/10/04 04:12:54;;;;;;;;;;;;;;;14.08;85.12;100306.02;1618734;87;20165;-87
2021/10/04 04:15:20;;;;;;;;;;;;;;;14.08;85.27;100302.03;1617891;87;20172;-92
2021/10/04 04:17:46;;;;;;;;;;;;;;;14.09;85.08;100303.18;1619777;88;20506;-84
2021/10/04 04:20:11;;;;;;;;;;;;;;;14.07;85.01;100307.00;1620888;88;20192;-86
2021/10/04 04:22:37;;;;;;;;;;;;;;;14.09;85.18;100302.33;1603813;89;21989;-87
2021/10/04 04:25:04;;;;;;;;;;;;;;;14.08;85.01;100308.67;1620017;87;20200;-85
2021/10/04 04:27:29;;;;;;;;;;;;;;;14.13;84.94;100303.65;1618921;88;20169;-85
2021/10/04 04:29:57;;;;;;;;;;;;;;;14.10;84.72;100309.31;1618148;87;20481;-84
2021/10/04 04:32:22;;;;;;;;;;;;;;;14.12;84.79;100309.95;1616223;87;20168;-84
2021/10/04 04:34:48;;;;;;;;;;;;;;;14.13;84.76;100302.32;1618026;88;21198;-89
2021/10/04 04:37:13;;;;;;;;;;;;;;;14.09;84.66;100303.66;1616957;87;20169;-84
2021/10/04 04:39:39;;;;;;;;;;;;;;;14.08;84.80;100306.02;1630000;85;20478;-86
2021/10/04 04:42:04;;;;;;;;;;;;;;;14.04;84.56;100304.70;1631985;85;20139;-86
2021/10/04 04:44:30;;;;;;;;;;;;;;;14.03;84.84;100307.02;1636055;85;20421;-86
2021/10/04 04:46:56;;;;;;;;;;;;;;;14.03;84.65;100305.69;1635304;86;21040;-86
2021/10/04 04:49:26;;;;;;;;;;;;;;;14.00;84.71;100307.70;1633871;85;20150;-85
2021/10/04 04:51:49;;;;;;;;;;;;;;;14.00;84.79;100309.03;1633710;85;20120;-84
2021/10/04 04:54:14;;;;;;;;;;;;;;;14.00;84.81;100303.72;1628284;86;20493;-84
2021/10/04 04:56:41;;;;;;;;;;;;;;;13.99;84.70;100303.38;1629377;87;20159;-83
2021/10/04 04:59:08;;;;;;;;;;;;;;;14.00;84.72;100306.38;1632857;86;21171;-83
2021/10/04 05:01:34;;;;;;;;;;;;;;;13.99;84.88;100310.02;1621913;87;20215;-87
2021/10/04 05:03:59;;;;;;;;;;;;;;;14.02;84.72;100309.36;1625000;87;20176;-88
2021/10/04 05:06:27;;;;;;;;;;;;;;;14.03;84.61;100313.66;1645347;85;20457;-84
2021/10/04 05:08:53;;;;;;;;;;;;;;;14.04;84.61;100310.01;1642965;85;20144;-86
2021/10/04 05:11:18;;;;;;;;;;;;;;;14.07;84.58;100313.64;1643695;85;22142;-84
2021/10/04 05:13:44;;;;;;;;;;;;;;;14.06;84.71;100314.16;1642412;85;20178;-86
2021/10/04 05:16:09;;;;;;;;;;;;;;;14.04;84.64;100314.80;1618363;86;20154;-86
2021/10/04 05:18:35;;;;;;;;;;;;;;;14.03;84.66;100311.00;1621256;86;20130;-86
2021/10/04 05:21:02;;;;;;;;;;;;;;;13.98;84.83;100315.02;1641434;85;20751;-86
2021/10/04 05:23:29;;;;;;;;;;;;;;;13.99;84.49;100317.98;1632939;88;22761;-84
2021/10/04 05:25:58;;;;;;;;;;;;;;;13.99;84.52;100316.66;1613539;87;20138;-87
2021/10/04 05:28:24;;;;;;;;;;;;;;;14.01;84.53;100317.81;1606016;87;20210;-88
2021/10/04 05:30:49;;;;;;;;;;;;;;;14.04;84.19;100317.98;1610820;87;20325;-85
2021/10/04 05:33:17;;;;;;;;;;;;;;;14.08;84.44;100321.95;1632212;86;20479;-83
2021/10/04 05:35:42;;;;;;;;;;;;;;;14.10;84.32;100326.57;1612978;87;22163;-84
2021/10/04 05:38:08;;;;;;;;;;;;;;;14.13;84.20;100327.55;1628596;86;20155;-86
2021/10/04 05:40:33;;;;;;;;;;;;;;;14.14;84.23;100326.56;1636234;86;20140;-84
2021/10/04 05:42:59;;;;;;;;;;;;;;;14.15;84.25;100328.19;1638931;85;20563;-90
2021/10/04 05:45:25;;;;;;;;;;;;;;;14.17;84.29;100332.84;1641969;85;20158;-83
2021/10/04 05:47:52;;;;;;;;;;;;;;;14.21;84.20;100331.47;1630384;87;21199;-84
2021/10/04 05:50:18;;;;;;;;;;;;;;;14.22;84.16;100337.12;1629034;86;20143;-83
2021/10/04 05:52:43;;;;;;;;;;;;;;;14.28;84.08;100336.94;1634453;86;20140;-83
2021/10/04 05:55:09;;;;;;;;;;;;;;;14.32;83.77;100344.34;1627483;86;20657;-87
2021/10/04 05:57:35;;;;;;;;;;;;;;;14.33;83.42;100338.04;1648990;85;20215;-84
2021/10/04 06:00:02;;;;;;;;;;;;;;;14.39;83.20;100337.00;1644401;85;21158;-82
2021/10/04 06:02:27;;;;;;;;;;;;;;;14.38;82.96;100338.02;1642562;85;20206;-87
2021/10/04 06:04:53;;;;;;;;;;;;;;;14.41;83.13;100339.00;1651550;85;20142;-82
2021/10/04 06:07:18;;;;;;;;;;;;;;;14.44;82.84;100332.00;1625862;87;20138;-83
2021/10/04 06:09:44;;;;;;;;;;;;;;;14.43;82.82;100343.62;1649837;85;20475;-82
2021/10/04 06:12:09;;;;;;;;;;;;;;;14.42;82.93;100334.84;1621725;87;21895;-83
2021/10/04 06:14:35;;;;;;;;;;;;;;;14.42;82.93;100331.33;1628976;87;20476;-86
2021/10/04 06:17:01;;;;;;;;;;;;;;;14.45;82.83;100333.64;1643949;85;20157;-83
2021/10/04 06:19:28;;;;;;;;;;;;;;;14.45;82.65;100336.30;1641197;85;20162;-83
2021/10/04 06:21:54;;;;;;;;;;;;;;;14.46;82.65;100339.28;1638826;85;20194;-84
2021/10/04 06:24:20;;;;;;;;;;;;;;;14.45;82.57;100334.97;1631902;86;21147;-85
2021/10/04 06:26:45;;;;;;;;;;;;;;;14.41;82.73;100335.83;1640358;85;20331;-85
2021/10/04 06:29:11;;;;;;;;;;;;;;;14.45;82.69;100337.62;1642982;85;20172;-86
2021/10/04 06:31:37;;;;;;;;;;;;;;;14.47;82.80;100336.97;1641534;86;20215;-85
2021/10/04 06:34:04;;;;;;;;;;;;;;;14.40;83.06;100338.16;1647468;85;20230;-81
2021/10/04 06:36:29;;;;;;;;;;;;;;;14.47;82.94;100335.13;1648329;85;21205;-86
2021/10/04 06:38:55;;;;;;;;;;;;;;;14.49;82.95;100341.08;1626012;87;20247;-84
2021/10/04 06:41:20;;;;;;;;;;;;;;;14.49;82.94;100335.77;1634967;86;20177;-84
2021/10/04 06:43:49;;;;;;;;;;;;;;;14.51;82.80;100336.44;1622891;87;21401;-82
2021/10/04 06:46:14;;;;;;;;;;;;;;;14.54;82.77;100342.73;1596952;87;20184;-83
2021/10/04 06:48:40;;;;;;;;;;;;;;;14.58;82.74;100341.04;1621780;86;21320;-84
2021/10/04 06:51:07;;;;;;;;;;;;;;;14.60;82.72;100339.88;1622448;87;20262;-82
2021/10/04 06:53:33;;;;;;;;;;;;;;;14.65;82.81;100344.17;1622333;87;20559;-83
2021/10/04 06:56:01;;;;;;;;;;;;;;;14.69;82.63;100340.13;1623115;87;20232;-88
2021/10/04 06:58:28;;;;;;;;;;;;;;;14.77;82.57;100347.73;1612075;87;20511;-82
2021/10/04 07:00:55;;;;;;;;;;;;;;;14.82;82.42;100350.67;1638290;86;21099;-82
2021/10/04 07:03:22;;;;;;;;;;;;;;;14.86;82.65;100351.97;1631667;86;20241;-82
2021/10/04 07:05:48;;;;;;;;;;;;;;;14.95;82.19;100357.55;1632578;86;20287;-81
2021/10/04 07:08:13;;;;;;;;;;;;;;;14.98;81.90;100359.84;1635100;86;20684;-85
2021/10/04 07:10:39;;;;;;;;;;;;;;;15.05;82.10;100359.43;1630822;86;20174;-88
2021/10/04 07:13:05;;;;;;;;;;;;;;;15.08;81.96;100362.24;1629579;86;21208;-81
2021/10/04 07:15:31;;;;;;;;;;;;;;;15.16;81.79;100361.34;1634253;86;20340;-83
2021/10/04 07:17:58;;;;;;;;;;;;;;;15.24;81.70;100365.24;1632117;86;20199;-80
2021/10/04 07:20:29;;;;;;;;;;;;;;;15.31;81.36;100364.03;1629883;87;20095;-84
2021/10/04 07:22:58;;;;;;;;;;;;;;;15.40;80.80;100368.27;1630491;86;20444;-83
2021/10/04 07:25:23;;;;;;;;;;;;;;;15.45;80.29;100368.53;1629963;87;20686;-84
2021/10/04 07:27:51;;;;;;;;;;;;;;;15.57;80.25;100370.25;1612619;87;20258;-83
2021/10/04 07:30:16;;;;;;;;;;;;;;;15.68;79.67;100368.45;1614416;87;20133;-82
2021/10/04 07:32:42;;;;;;;;;;;;;;;15.79;79.35;100366.67;1621653;87;21291;-92
2021/10/04 07:35:08;;;;;;;;;;;;;;;15.89;78.99;100368.23;1612658;87;20162;-81
2021/10/04 07:37:36;;;;;;;;;;;;;;;15.97;78.65;100372.11;1617256;87;20560;-82
2021/10/04 07:40:03;;;;;;;;;;;;;;;16.05;78.24;100369.36;1611398;87;20633;-80
2021/10/04 07:42:35;;;;;;;;;;;;;;;16.08;77.88;100372.98;1621842;87;20223;-83
2021/10/04 07:44:58;;;;;;;;;;;;;;;16.14;78.00;100369.58;1617054;87;20540;-83
2021/10/04 07:47:24;;;;;;;;;;;;;;;16.21;77.74;100379.48;1619071;87;21462;-82
2021/10/04 07:49:53;;;;;;;;;;;;;;;16.21;77.21;100372.82;1631381;87;21120;-82
2021/10/04 07:52:19;;;;;;;;;;;;;;;16.22;77.03;100374.45;1626694;87;20191;-82
2021/10/04 07:54:44;;;;;;;;;;;;;;;16.22;77.26;100379.30;1632870;86;20713;-83
2021/10/04 07:57:13;;;;;;;;;;;;;;;16.29;76.84;100383.36;1632767;86;20606;-85
2021/10/04 07:59:40;;;;;;;;;;;;;;;16.36;76.76;100386.94;1612104;87;20233;-82
2021/10/04 08:02:08;;;;;;;;;;;;;;;16.40;76.79;100381.52;1642160;86;21257;-81
2021/10/04 08:04:34;;;;;;;;;;;;;;;16.45;76.61;100378.30;1642802;86;21069;-82
2021/10/04 08:07:00;;;;;;;;;;;;;;;16.51;76.96;100381.53;1638493;86;20223;-86
2021/10/04 08:09:25;;;;;;;;;;;;;;;16.61;76.58;100386.06;1640366;86;20176;-92
2021/10/04 08:11:51;;;;;;;;;;;;;;;16.66;76.01;100385.49;1617499;88;21231;-82
2021/10/04 08:14:17;;;;;;;;;;;;;;;16.72;76.21;100379.39;1603282;87;21195;-80
2021/10/04 08:16:44;;;;;;;;;;;;;;;16.77;76.03;100380.97;1642794;85;20312;-81
2021/10/04 08:19:11;;;;;;;;;;;;;;;16.83;75.51;100378.88;1629649;86;20187;-81
2021/10/04 08:21:40;;;;;;;;;;;;;;;16.91;75.35;100385.95;1646570;86;21108;-90
2021/10/04 08:24:06;;;;;;;;;;;;;;;16.97;75.10;100384.37;1645141;85;20188;-81
2021/10/04 08:26:31;;;;;;;;;;;;;;;17.04;74.98;100382.56;1647815;86;21231;-81
2021/10/04 08:28:59;;;;;;;;;;;;;;;17.05;74.54;100385.03;1641766;85;20227;-81
2021/10/04 08:31:32;;;;;;;;;;;;;;;17.14;75.14;100391.59;1645734;86;20212;-83
2021/10/04 08:34:03;;;;;;;;;;;;;;;17.19;74.86;100388.64;1645813;85;20237;-86
2021/10/04 08:36:30;;;;;;;;;;;;;;;17.27;74.47;100388.19;1645914;85;20190;-86
2021/10/04 08:38:56;;;;;;;;;;;;;;;17.32;74.14;100387.09;1628769;86;21144;-81
2021/10/04 08:41:22;;;;;;;;;;;;;;;17.36;74.09;100385.69;1625391;86;20228;-79
2021/10/04 08:43:50;;;;;;;;;;;;;;;17.43;73.92;100383.87;1600700;87;20624;-82
2021/10/04 08:46:15;;;;;;;;;;;;;;;17.48;73.69;100381.45;1633522;86;20941;-81
2021/10/04 08:48:41;;;;;;;;;;;;;;;17.55;73.99;100391.65;1625617;87;20124;-84
2021/10/04 08:51:08;;;;;;;;;;;;;;;17.65;74.22;100394.48;1624630;86;20931;-83
2021/10/04 08:53:36;;;;;;;;;;;;;;;17.73;73.81;100390.33;1599242;86;20485;-85
2021/10/04 08:56:04;;;;;;;;;;;;;;;17.82;73.32;100386.48;1620904;88;20133;-82
2021/10/04 08:58:32;;;;;;;;;;;;;;;17.92;72.91;100393.63;1623647;86;20536;-82
2021/10/04 09:00:59;;;;;;;;;;;;;;;18.02;72.54;100392.44;1623567;86;21061;-83
2021/10/04 09:03:25;;;;;;;;;;;;;;;18.04;72.42;100387.73;1624499;86;21042;-82
2021/10/04 09:05:57;;;;;;;;;;;;;;;18.04;72.17;100385.06;1626674;88;20211;-85
2021/10/04 09:08:22;;;;;;;;;;;;;;;18.08;71.86;100380.95;1625981;87;20207;-81
2021/10/04 09:10:49;;;;;;;;;;;;;;;18.11;72.27;100382.70;1640422;86;20266;-81
2021/10/04 09:13:16;;;;;;;;;;;;;;;18.16;71.88;100387.45;1642914;86;20145;-83
2021/10/04 09:15:46;;;;;;;;;;;;;;;18.21;72.09;100385.02;1633004;86;21067;-84
2021/10/04 09:18:22;;;;;;;;;;;;;;;18.26;72.60;100389.24;1631501;86;20147;-79
2021/10/04 09:20:53;;;;;;;;;;;;;;;18.29;72.55;100380.82;1612073;87;20226;-79
2021/10/04 09:23:31;;;;;;;;;;;;;;;18.35;72.68;100382.37;1609572;87;20181;-80
2021/10/04 09:25:58;;;;;;;;;;;;;;;18.39;72.44;100384.96;1629999;86;20251;-81
2021/10/04 09:28:37;;;;;;;;;;;;;;;18.38;72.11;100388.65;1645253;85;21863;-83
2021/10/04 09:31:22;;;;;;;;;;;;;;;18.38;71.86;100381.97;1637744;86;20442;-80
2021/10/04 09:34:12;;;;;;;;;;;;;;;18.39;71.75;100382.28;1645173;86;20445;-82
2021/10/04 09:36:41;;;;;;;;;;;;;;;18.43;71.89;100380.87;1646984;86;20150;-80
2021/10/04 09:39:19;;;;;;;;;;;;;;;18.50;71.19;100379.01;1629328;86;20158;-81
2021/10/04 09:41:59;;;;;;;;;;;;;;;18.52;71.00;100382.33;1635842;86;21166;-82
2021/10/04 09:44:27;;;;;;;;;;;;;;;18.57;71.16;100385.20;1634169;86;20625;-83
2021/10/04 09:46:57;;;;;;;;;;;;;;;18.64;71.34;100386.05;1617515;86;20216;-88
2021/10/04 09:49:24;;;;;;;;;;;;;;;18.70;71.58;100380.91;1635887;87;20302;-84
2021/10/04 09:51:53;;;;;;;;;;;;;;;18.71;71.10;100387.39;1609413;86;20201;-84
2021/10/04 09:54:19;;;;;;;;;;;;;;;18.76;70.46;100382.77;1632749;86;21218;-82
2021/10/04 09:56:45;;;;;;;;;;;;;;;18.80;70.41;100382.16;1609047;87;20975;-81
2021/10/04 09:59:11;;;;;;;;;;;;;;;18.89;70.43;100376.09;1636190;87;20165;-81
2021/10/04 10:01:38;;;;;;;;;;;;;;;18.95;70.32;100385.98;1626736;86;20131;-84
2021/10/04 10:04:04;;;;;;;;;;;;;;;18.98;69.94;100380.74;1634386;86;20331;-82
2021/10/04 10:06:33;;;;;;;;;;;;;;;19.10;69.65;100380.96;1631599;86;21072;-87
2021/10/04 10:08:59;;;;;;;;;;;;;;;19.24;69.22;100379.91;1632703;87;20234;-81
2021/10/04 10:11:28;;;;;;;;;;;;;;;19.35;68.98;100384.62;1627283;86;20618;-81
2021/10/04 10:13:52;;;;;;;;;;;;;;;19.43;68.61;100380.09;1631761;86;20159;-80
2021/10/04 10:16:23;;;;;;;;;;;;;;;19.46;68.05;100378.34;1634297;87;20167;-80
2021/10/04 10:19:01;;;;;;;;;;;;;;;19.57;67.77;100375.00;1609599;87;21823;-80
2021/10/04 10:21:30;;;;;;;;;;;;;;;19.72;67.63;100381.47;1619165;86;38509;-79
2021/10/04 10:24:00;;;;;;;;;;;;;;;19.80;67.10;100373.75;1631298;86;20191;-86
2021/10/04 10:26:32;;;;;;;;;;;;;;;19.81;66.89;100380.23;1633286;86;20175;-82
2021/10/04 10:29:20;;;;;;;;;;;;;;;19.95;67.06;100376.99;1632292;86;20317;-87
2021/10/04 10:31:56;;;;;;;;;;;;;;;20.02;66.65;100373.74;1632923;86;21105;-83
2021/10/04 10:34:34;;;;;;;;;;;;;;;20.13;66.74;100381.64;1633548;86;20523;-80
2021/10/04 10:37:16;;;;;;;;;;;;;;;20.20;66.79;100384.31;1631969;86;20263;-83
2021/10/04 10:39:50;;;;;;;;;;;;;;;20.26;65.95;100387.48;1631197;86;20189;-82
2021/10/04 10:42:26;;;;;;;;;;;;;;;20.37;66.13;100373.88;1651002;85;20132;-80
2021/10/04 10:45:03;;;;;;;;;;;;;;;20.37;65.77;100370.70;1650645;86;21404;-83
2021/10/04 10:47:38;;;;;;;;;;;;;;;20.45;65.65;100364.25;1652140;85;20208;-87
2021/10/04 10:50:27;;;;;;;;;;;;;;;20.51;65.00;100367.91;1655542;85;20536;-83
2021/10/04 10:52:59;;;;;;;;;;;;;;;20.49;65.16;100370.81;1651499;86;20158;-88
2021/10/04 10:55:33;;;;;;;;;;;;;;;20.59;65.93;100365.80;1652999;85;20237;-92
2021/10/04 10:58:04;;;;;;;;;;;;;;;20.67;65.20;100366.62;1650554;86;21901;-80
2021/10/04 11:00:42;;;;;;;;;;;;;;;20.73;65.11;100368.43;1652918;85;21345;-89
2021/10/04 11:03:14;;;;;;;;;;;;;;;20.80;64.84;100366.50;1645647;85;20206;-89
2021/10/04 11:05:43;;;;;;;;;;;;;;;20.86;64.11;100362.13;1640885;85;20199;-85
2021/10/04 11:08:19;;;;;;;;;;;;;;;20.89;63.65;100363.03;1642041;85;20211;-87
2021/10/04 11:10:58;;;;;;;;;;;;;;;20.93;64.03;100357.54;1636358;86;21287;-81
2021/10/04 11:13:34;;;;;;;;;;;;;;;20.95;63.53;100350.08;1640655;87;20143;-84
2021/10/04 11:16:06;;;;;;;;;;;;;;;20.96;63.69;100357.91;1639411;87;21064;-81
2021/10/04 11:18:39;;;;;;;;;;;;;;;20.99;63.59;100364.72;1648721;85;20221;-85
2021/10/04 11:21:08;;;;;;;;;;;;;;;21.10;63.22;100359.96;1623025;87;20508;-80
2021/10/04 11:23:33;;;;;;;;;;;;;;;21.16;63.10;100363.11;1654878;85;21135;-82
2021/10/04 11:25:59;;;;;;;;;;;;;;;21.31;62.63;100361.92;1663326;85;20130;-89
2021/10/04 11:28:35;;;;;;;;;;;;;;;21.40;62.14;100355.75;1665999;84;20624;-83
2021/10/04 11:31:03;;;;;;;;;;;;;;;21.48;61.53;100354.92;1662510;85;20169;-80
2021/10/04 11:33:33;;;;;;;;;;;;;;;21.56;60.93;100356.52;1662360;85;20177;-83
2021/10/04 11:36:07;;;;;;;;;;;;;;;21.65;60.72;100357.06;1659044;85;21073;-88
2021/10/04 11:38:35;;;;;;;;;;;;;;;21.69;60.82;100351.55;1658059;85;20189;-87
2021/10/04 11:41:01;;;;;;;;;;;;;;;21.77;61.18;100351.23;1664179;84;20189;-81
2021/10/04 11:43:30;;;;;;;;;;;;;;;21.86;61.38;100355.25;1672879;84;20770;-87
2021/10/04 11:45:56;;;;;;;;;;;;;;;21.83;61.03;100362.42;1662467;84;20262;-81
2021/10/04 11:48:32;;;;;;;;;;;;;;;21.70;61.10;100355.85;1661636;84;21085;-82
2021/10/04 11:50:58;;;;;;;;;;;;;;;21.76;60.74;100349.58;1666027;84;20197;-79
2021/10/04 11:53:25;;;;;;;;;;;;;;;21.74;60.69;100355.71;1670920;84;20279;-82
2021/10/04 11:56:02;;;;;;;;;;;;;;;21.77;60.49;100355.27;1662213;84;20180;-83
2021/10/04 11:58:28;;;;;;;;;;;;;;;21.82;60.28;100348.67;1666200;84;20545;-82
2021/10/04 12:00:54;;;;;;;;;;;;;;;21.87;60.26;100348.81;1662464;84;20964;-81
2021/10/04 12:03:31;;;;;;;;;;;;;;;21.83;60.09;100354.36;1666298;84;20187;-83
2021/10/04 12:05:58;;;;;;;;;;;;;;;21.81;59.82;100351.09;1665080;84;20259;-86
2021/10/04 12:08:25;;;;;;;;;;;;;;;21.81;59.82;100353.78;1663186;84;20210;-89
2021/10/04 12:10:57;;;;;;;;;;;;;;;21.79;59.79;100351.81;1668890;84;20334;-88
2021/10/04 12:13:27;;;;;;;;;;;;;;;21.91;60.49;100345.67;1667670;84;21179;-86
2021/10/04 12:15:54;;;;;;;;;;;;;;;21.92;59.85;100346.79;1661429;84;20190;-84
2021/10/04 12:18:20;;;;;;;;;;;;;;;21.97;60.09;100347.45;1669174;84;20182;-82
2021/10/04 12:20:48;;;;;;;;;;;;;;;22.01;60.21;100348.66;1666278;85;20562;-86
2021/10/04 12:23:15;;;;;;;;;;;;;;;22.09;59.44;100351.02;1668177;84;20467;-91
2021/10/04 12:25:40;;;;;;;;;;;;;;;22.14;59.49;100352.52;1669010;84;21348;-82
2021/10/04 12:28:07;;;;;;;;;;;;;;;22.17;59.04;100354.75;1640549;85;20200;-86
2021/10/04 12:30:46;;;;;;;;;;;;;;;22.20;59.21;100353.46;1665694;84;20150;-89
2021/10/04 12:33:11;;;;;;;;;;;;;;;22.27;59.01;100351.51;1662929;85;20232;-82
2021/10/04 12:35:37;;;;;;;;;;;;;;;22.41;59.18;100352.17;1670240;85;20157;-79
2021/10/04 12:38:03;;;;;;;;;;;;;;;22.43;58.84;100347.91;1666327;85;21112;-83